Terminal Aerodrome Forecast
Issued by NWS

Home | Current Version | Previous Version | Graphics & Text | Print | Product List | Glossary On
Versions: 1 2 3 4 5 6 7 8 9 10 11 12 13 14 15 16 17 18 19 20 21 22 23 24 25 26 27 28 29 30 31 32 33
869
FTUS43 KDVN 082334
TAFCID
TAF
KCID 082334Z 0900/0924 31015G25KT 5SM -SN SCT015 BKN025 OVC045
      TEMPO 0900/0904 2SM -SN BR BKN015 OVC025
     FM090400 32017KT 6SM -SN BR BKN015 OVC025
     FM091700 32018G26KT P6SM BKN035=

USA.gov is the U.S. government's official web portal to all federal, state and local government web resources and services.